createdAt,value
2024-04-30T00:01:35.015Z,102098.66
2024-04-30T00:04:02.267Z,102097.09
2024-04-30T00:06:30.067Z,102097.43
2024-04-30T00:08:56.991Z,102100.23
2024-04-30T00:11:24.038Z,102099.36
2024-04-30T00:13:51.858Z,102103.41
2024-04-30T00:16:18.771Z,102102.54
2024-04-30T00:18:45.889Z,102105.14
2024-04-30T00:21:12.949Z,102101.98
2024-04-30T00:23:39.896Z,102099.70
2024-04-30T00:26:10.863Z,102108.32
2024-04-30T00:28:38.204Z,102105.31
2024-04-30T00:31:05.437Z,102108.64
2024-04-30T00:33:32.708Z,102107.24
2024-04-30T00:35:59.716Z,102104.44
2024-04-30T00:38:26.579Z,102103.20
2024-04-30T00:40:53.477Z,102105.61
2024-04-30T00:43:20.483Z,102108.95
2024-04-30T00:45:47.424Z,102110.53
2024-04-30T00:48:14.440Z,102117.39
2024-04-30T00:50:41.492Z,102121.24
2024-04-30T00:53:08.642Z,102118.43
2024-04-30T00:55:35.711Z,102118.41
2024-04-30T00:58:02.883Z,102119.29
2024-04-30T01:00:30.223Z,102120.70
2024-04-30T01:02:57.497Z,102120.86
2024-04-30T01:05:24.733Z,102123.51
2024-04-30T01:07:51.784Z,102125.95
2024-04-30T01:10:20.378Z,102124.70
2024-04-30T01:12:48.122Z,102128.73
2024-04-30T01:15:15.020Z,102129.96
2024-04-30T01:17:41.998Z,102132.77
2024-04-30T01:20:09.819Z,102135.91
2024-04-30T01:22:41.479Z,102132.21
2024-04-30T01:25:08.613Z,102138.01
2024-04-30T01:27:36.436Z,102134.84
2024-04-30T01:30:03.318Z,102136.60
2024-04-30T01:32:30.682Z,102139.20
2024-04-30T01:34:57.771Z,102139.54
2024-04-30T01:37:24.866Z,102134.45
2024-04-30T01:39:52.074Z,102133.89
2024-04-30T01:42:19.228Z,102128.79
2024-04-30T01:44:46.385Z,102126.34
2024-04-30T01:47:13.438Z,102131.59
2024-04-30T01:49:40.500Z,102128.27
2024-04-30T01:52:07.501Z,102124.04
2024-04-30T01:54:34.603Z,102120.18
2024-04-30T01:57:01.863Z,102120.36
2024-04-30T01:59:28.940Z,102124.05
2024-04-30T02:01:56.068Z,102122.64
2024-04-30T02:04:23.351Z,102124.04
2024-04-30T02:06:50.400Z,102121.90
2024-04-30T02:09:17.402Z,102119.79
2024-04-30T02:11:44.371Z,102117.84
2024-04-30T02:14:11.458Z,102117.16
2024-04-30T02:16:38.452Z,102113.29
2024-04-30T02:19:05.760Z,102108.16
2024-04-30T02:21:32.936Z,102110.61
2024-04-30T02:23:59.988Z,102107.98
2024-04-30T02:26:27.126Z,102109.02
2024-04-30T02:28:54.280Z,102110.05
2024-04-30T02:31:39.963Z,102105.66
2024-04-30T02:34:25.609Z,102109.68
2024-04-30T02:36:56.071Z,102108.63
2024-04-30T02:39:23.336Z,102111.09
2024-04-30T02:41:51.103Z,102118.45
2024-04-30T02:44:18.175Z,102116.35
2024-04-30T02:46:45.201Z,102118.98
2024-04-30T02:49:12.326Z,102115.64
2024-04-30T02:51:39.659Z,102120.38
2024-04-30T02:54:06.593Z,102121.61
2024-04-30T02:56:33.844Z,102121.25
2024-04-30T02:59:00.998Z,102123.36
2024-04-30T03:01:32.450Z,102127.75
2024-04-30T03:03:59.921Z,102129.70
2024-04-30T03:06:26.965Z,102129.90
2024-04-30T03:08:54.120Z,102129.55
2024-04-30T03:11:21.446Z,102132.55
2024-04-30T03:13:48.916Z,102137.80
2024-04-30T03:16:16.135Z,102141.33
2024-04-30T03:18:43.369Z,102139.91
2024-04-30T03:21:14.016Z,102143.77
2024-04-30T03:23:41.068Z,102147.45
2024-04-30T03:26:08.236Z,102152.04
2024-04-30T03:28:35.488Z,102159.42
2024-04-30T03:31:06.317Z,102163.12
2024-04-30T03:33:36.724Z,102161.02
2024-04-30T03:36:03.949Z,102163.13
2024-04-30T03:38:30.882Z,102166.47
2024-04-30T03:40:58.209Z,102167.88
2024-04-30T03:43:25.514Z,102169.84
2024-04-30T03:45:53.139Z,102167.58
2024-04-30T03:48:20.465Z,102167.95
2024-04-30T03:50:50.267Z,102170.27
2024-04-30T03:53:17.267Z,102176.61
2024-04-30T03:55:44.317Z,102181.38
2024-04-30T03:58:11.594Z,102188.59
2024-04-30T04:00:38.787Z,102187.55
2024-04-30T04:03:05.828Z,102188.45
2024-04-30T04:05:33.063Z,102189.85
2024-04-30T04:08:00.823Z,102187.25
2024-04-30T04:10:28.093Z,102184.98
2024-04-30T04:13:24.322Z,102188.54
2024-04-30T04:15:51.268Z,102185.21
2024-04-30T04:18:18.237Z,102187.54
2024-04-30T04:20:45.155Z,102188.08
2024-04-30T04:23:11.995Z,102181.23
2024-04-30T04:25:39.081Z,102180.90
2024-04-30T04:28:08.378Z,102177.93
2024-04-30T04:30:35.406Z,102177.60
2024-04-30T04:33:02.649Z,102179.89
2024-04-30T04:35:29.939Z,102177.79
2024-04-30T04:37:56.784Z,102177.62
2024-04-30T04:40:23.652Z,102181.48
2024-04-30T04:42:50.610Z,102184.13
2024-04-30T04:45:17.444Z,102182.56
2024-04-30T04:47:44.390Z,102186.61
2024-04-30T04:50:11.424Z,102186.08
2024-04-30T04:52:39.090Z,102189.23
2024-04-30T04:55:06.147Z,102185.88
2024-04-30T04:57:33.189Z,102189.39
2024-04-30T05:00:00.321Z,102192.05
2024-04-30T05:02:27.522Z,102193.98
2024-04-30T05:04:54.921Z,102194.70
2024-04-30T05:07:21.971Z,102195.21
2024-04-30T05:09:49.751Z,102199.42
2024-04-30T05:12:16.709Z,102192.40
2024-04-30T05:14:46.096Z,102196.09
2024-04-30T05:17:13.299Z,102202.77
2024-04-30T05:19:40.289Z,102206.46
2024-04-30T05:22:07.239Z,102207.52
2024-04-30T05:24:38.077Z,102203.61
2024-04-30T05:27:05.950Z,102199.93
2024-04-30T05:29:45.343Z,102201.15
2024-04-30T05:32:21.794Z,102198.02
2024-04-30T05:34:49.045Z,102198.89
2024-04-30T05:37:16.031Z,102194.92
2024-04-30T05:39:42.954Z,102191.46
2024-04-30T05:42:09.772Z,102193.20
2024-04-30T05:44:40.053Z,102187.64
2024-04-30T05:47:07.047Z,102187.48
2024-04-30T05:49:34.058Z,102187.63
2024-04-30T05:52:01.109Z,102182.02
2024-04-30T05:54:27.987Z,102180.88
2024-04-30T05:56:54.807Z,102186.88
2024-04-30T05:59:21.784Z,102179.57
2024-04-30T06:01:48.753Z,102180.20
2024-04-30T06:04:15.984Z,102181.73
2024-04-30T06:06:43.288Z,102185.84
2024-04-30T06:09:10.336Z,102186.77
2024-04-30T06:11:37.423Z,102191.61
2024-04-30T06:14:04.441Z,102196.60
2024-04-30T06:16:32.050Z,102194.36
2024-04-30T06:18:59.425Z,102194.28
2024-04-30T06:21:31.696Z,102194.30
2024-04-30T06:24:05.137Z,102202.69
2024-04-30T06:26:32.303Z,102200.30
2024-04-30T06:28:59.252Z,102204.67
2024-04-30T06:31:26.331Z,102202.70
2024-04-30T06:33:53.451Z,102208.11
2024-04-30T06:36:20.616Z,102208.86
2024-04-30T06:38:47.592Z,102207.45
2024-04-30T06:41:15.689Z,102212.10
2024-04-30T06:43:43.165Z,102217.64
2024-04-30T06:46:10.242Z,102214.64
2024-04-30T06:48:37.274Z,102215.11
2024-04-30T06:51:04.508Z,102215.29
2024-04-30T06:53:31.708Z,102217.70
2024-04-30T06:55:58.549Z,102216.58
2024-04-30T06:58:25.568Z,102217.75
2024-04-30T07:00:52.734Z,102215.42
2024-04-30T07:03:19.615Z,102213.46
2024-04-30T07:05:46.442Z,102215.05
2024-04-30T07:08:13.253Z,102216.83
2024-04-30T07:10:40.454Z,102215.73
2024-04-30T07:13:10.332Z,102217.77
2024-04-30T07:15:37.328Z,102216.95
2024-04-30T07:18:04.616Z,102221.08
2024-04-30T07:20:31.883Z,102228.61
2024-04-30T07:22:58.891Z,102237.60
2024-04-30T07:25:25.899Z,102240.26
2024-04-30T07:27:52.764Z,102236.83
2024-04-30T07:30:19.636Z,102238.30
2024-04-30T07:32:46.805Z,102234.83
2024-04-30T07:35:13.843Z,102231.83
2024-04-30T07:37:40.863Z,102227.16
2024-04-30T07:40:08.873Z,102232.82
2024-04-30T07:42:35.918Z,102235.48
2024-04-30T07:45:02.803Z,102238.25
2024-04-30T07:47:30.027Z,102240.14
2024-04-30T07:49:56.939Z,102241.79
2024-04-30T07:52:23.827Z,102240.21
2024-04-30T07:54:50.818Z,102242.03
2024-04-30T07:57:17.686Z,102235.95
2024-04-30T07:59:44.545Z,102230.77
2024-04-30T08:02:14.389Z,102232.20
2024-04-30T08:04:41.777Z,102227.46
2024-04-30T08:07:08.886Z,102224.09
2024-04-30T08:09:36.008Z,102224.89
2024-04-30T08:12:03.005Z,102221.16
2024-04-30T08:14:32.861Z,102218.59
2024-04-30T08:17:01.825Z,102220.92
2024-04-30T08:19:29.118Z,102216.51
2024-04-30T08:21:56.024Z,102215.54
2024-04-30T08:24:22.972Z,102209.35
2024-04-30T08:26:50.501Z,102212.95
2024-04-30T08:29:17.471Z,102211.15
2024-04-30T08:31:44.923Z,102209.39
2024-04-30T08:34:11.977Z,102210.66
2024-04-30T08:36:39.066Z,102214.00
2024-04-30T08:39:30.999Z,102208.56
2024-04-30T08:41:58.036Z,102203.02
2024-04-30T08:44:24.938Z,102202.77
2024-04-30T08:46:52.206Z,102204.58
2024-04-30T08:49:28.116Z,102209.77
2024-04-30T08:52:00.548Z,102204.40
2024-04-30T08:54:27.567Z,102202.63
2024-04-30T08:56:54.658Z,102200.09
2024-04-30T08:59:21.518Z,102194.70
2024-04-30T09:01:52.654Z,102191.10
2024-04-30T09:04:19.755Z,102190.11
2024-04-30T09:06:46.798Z,102189.89
2024-04-30T09:09:16.954Z,102184.77
2024-04-30T09:11:44.249Z,102182.25
2024-04-30T09:14:11.747Z,102181.34
2024-04-30T09:16:46.328Z,102175.13
2024-04-30T09:19:30.043Z,102169.20
2024-04-30T09:22:06.491Z,102171.42
2024-04-30T09:24:33.985Z,102169.34
2024-04-30T09:27:01.020Z,102168.60
2024-04-30T09:29:34.790Z,102172.14
2024-04-30T09:32:01.818Z,102172.67
2024-04-30T09:34:40.227Z,102169.95
2024-04-30T09:37:33.424Z,102170.70
2024-04-30T09:40:00.399Z,102166.81
2024-04-30T09:42:28.475Z,102165.09
2024-04-30T09:44:55.777Z,102164.30
2024-04-30T09:47:23.571Z,102165.95
2024-04-30T09:49:50.786Z,102163.61
2024-04-30T09:52:18.095Z,102164.00
2024-04-30T09:54:45.156Z,102164.97
2024-04-30T09:57:12.452Z,102169.51
2024-04-30T09:59:39.521Z,102171.96
2024-04-30T10:02:09.282Z,102168.13
2024-04-30T10:04:36.344Z,102165.91
2024-04-30T10:07:03.771Z,102163.30
2024-04-30T10:09:32.359Z,102157.35
2024-04-30T10:11:59.251Z,102160.70
2024-04-30T10:14:35.722Z,102155.36
2024-04-30T10:17:05.776Z,102153.84
2024-04-30T10:19:50.847Z,102151.41
2024-04-30T10:22:18.732Z,102149.48
2024-04-30T10:24:48.921Z,102147.19
2024-04-30T10:27:23.159Z,102149.95
2024-04-30T10:29:50.381Z,102147.74
2024-04-30T10:32:17.478Z,102145.31
2024-04-30T10:34:54.810Z,102140.61
2024-04-30T10:37:32.042Z,102138.18
2024-04-30T10:40:09.431Z,102134.59
2024-04-30T10:42:36.628Z,102131.56
2024-04-30T10:45:03.827Z,102129.34
2024-04-30T10:47:34.597Z,102127.41
2024-04-30T10:50:16.160Z,102127.00
2024-04-30T10:52:46.707Z,102124.16
2024-04-30T10:55:14.195Z,102123.20
2024-04-30T10:57:43.772Z,102119.05
2024-04-30T11:00:11.793Z,102116.92
2024-04-30T11:02:41.539Z,102116.45
2024-04-30T11:05:15.569Z,102117.30
2024-04-30T11:07:56.432Z,102112.77
2024-04-30T11:10:30.268Z,102112.77
2024-04-30T11:12:58.628Z,102112.62
2024-04-30T11:15:25.868Z,102110.77
2024-04-30T11:17:53.536Z,102106.60
2024-04-30T11:20:20.616Z,102109.52
2024-04-30T11:22:47.755Z,102107.96
2024-04-30T11:25:14.800Z,102104.05
2024-04-30T11:27:41.953Z,102101.70
2024-04-30T11:30:09.940Z,102097.41
2024-04-30T11:32:37.549Z,102095.56
2024-04-30T11:35:07.835Z,102089.64
2024-04-30T11:37:35.720Z,102086.89
2024-04-30T11:40:03.223Z,102084.14
2024-04-30T11:42:34.945Z,102080.05
2024-04-30T11:45:14.686Z,102077.37
2024-04-30T11:47:42.135Z,102073.05
2024-04-30T11:50:09.779Z,102071.23
2024-04-30T11:52:37.995Z,102069.29
2024-04-30T11:55:05.655Z,102067.65
2024-04-30T11:57:32.811Z,102064.64
2024-04-30T12:00:03.495Z,102058.56
2024-04-30T12:02:32.718Z,102051.06
2024-04-30T12:04:59.952Z,102045.92
2024-04-30T12:07:27.161Z,102044.36
2024-04-30T12:09:54.190Z,102040.10
2024-04-30T12:12:21.491Z,102041.42
2024-04-30T12:14:49.206Z,102036.75
2024-04-30T12:17:16.294Z,102039.12
2024-04-30T12:19:43.552Z,102030.36
2024-04-30T12:22:10.703Z,102025.02
2024-04-30T12:24:38.021Z,102021.18
2024-04-30T12:27:05.252Z,102015.76
2024-04-30T12:29:32.166Z,102019.94
2024-04-30T12:31:59.811Z,102018.10
2024-04-30T12:34:26.717Z,102014.05
2024-04-30T12:36:53.641Z,102010.52
2024-04-30T12:39:20.606Z,102007.36
2024-04-30T12:41:48.756Z,102007.95
2024-04-30T12:44:15.680Z,102004.40
2024-04-30T12:46:47.439Z,102002.77
2024-04-30T12:49:14.634Z,102001.90
2024-04-30T12:51:41.933Z,101998.10
2024-04-30T12:54:09.292Z,101996.20
2024-04-30T12:56:36.176Z,101992.22
2024-04-30T12:59:04.599Z,101989.63
2024-04-30T13:01:31.626Z,101987.27
2024-04-30T13:03:58.589Z,101985.45
2024-04-30T13:06:25.576Z,101982.27
2024-04-30T13:08:53.899Z,101978.23
2024-04-30T13:11:20.935Z,101971.19
2024-04-30T13:13:48.147Z,101969.05
2024-04-30T13:16:15.325Z,101963.67
2024-04-30T13:18:42.622Z,101956.33
2024-04-30T13:21:09.590Z,101956.13
2024-04-30T13:23:37.229Z,101951.67
2024-04-30T13:26:04.321Z,101949.27
2024-04-30T13:28:31.440Z,101947.04
2024-04-30T13:30:59.903Z,101949.16
2024-04-30T13:33:29.421Z,101944.36
2024-04-30T13:35:56.564Z,101939.21
2024-04-30T13:38:23.657Z,101938.38
2024-04-30T13:40:50.761Z,101935.08
2024-04-30T13:43:17.736Z,101930.34
2024-04-30T13:45:45.003Z,101927.13
2024-04-30T13:48:12.170Z,101927.55
2024-04-30T13:50:42.022Z,101924.58
2024-04-30T13:53:09.630Z,101924.77
2024-04-30T13:55:36.500Z,101922.63
2024-04-30T13:58:05.246Z,101919.57
2024-04-30T14:00:32.726Z,101922.39
2024-04-30T14:03:03.336Z,101917.55
2024-04-30T14:05:33.197Z,101911.16
2024-04-30T14:08:01.487Z,101906.94
2024-04-30T14:10:28.508Z,101900.79
2024-04-30T14:12:55.475Z,101898.03
2024-04-30T14:15:22.308Z,101900.30
2024-04-30T14:17:49.281Z,101894.67
2024-04-30T14:20:16.228Z,101891.70
2024-04-30T14:22:43.856Z,101883.55
2024-04-30T14:25:10.812Z,101883.40
2024-04-30T14:27:38.013Z,101883.38
2024-04-30T14:30:05.963Z,101881.80
2024-04-30T14:32:33.794Z,101881.63
2024-04-30T14:35:01.241Z,101876.66
2024-04-30T14:37:31.657Z,101869.73
2024-04-30T14:39:58.614Z,101869.00
2024-04-30T14:42:25.615Z,101868.62
2024-04-30T14:44:54.730Z,101867.92
2024-04-30T14:47:23.661Z,101862.60
2024-04-30T14:49:51.045Z,101857.46
2024-04-30T14:52:18.234Z,101852.83
2024-04-30T14:54:45.485Z,101850.37
2024-04-30T14:57:12.598Z,101848.45
2024-04-30T14:59:39.647Z,101848.14
2024-04-30T15:02:06.838Z,101846.92
2024-04-30T15:04:34.449Z,101845.52
2024-04-30T15:07:01.642Z,101840.27
2024-04-30T15:09:32.608Z,101842.44
2024-04-30T15:12:01.796Z,101841.02
2024-04-30T15:14:28.828Z,101841.58
2024-04-30T15:16:55.919Z,101840.01
2024-04-30T15:19:23.493Z,101839.49
2024-04-30T15:21:51.131Z,101837.56
2024-04-30T15:24:18.377Z,101831.58
2024-04-30T15:26:45.465Z,101825.73
2024-04-30T15:29:13.493Z,101827.20
2024-04-30T15:31:41.018Z,101824.59
2024-04-30T15:34:08.139Z,101814.54
2024-04-30T15:36:40.887Z,101813.69
2024-04-30T15:39:07.882Z,101809.13
2024-04-30T15:41:34.919Z,101808.10
2024-04-30T15:44:01.934Z,101802.81
2024-04-30T15:46:28.933Z,101799.12
2024-04-30T15:48:55.928Z,101799.18
2024-04-30T15:51:22.833Z,101793.90
2024-04-30T15:53:49.979Z,101795.51
2024-04-30T15:56:18.378Z,101790.80
2024-04-30T15:58:46.407Z,101791.23
2024-04-30T16:01:14.411Z,101791.84
2024-04-30T16:03:41.600Z,101792.11
2024-04-30T16:06:08.938Z,101788.79
2024-04-30T16:08:38.851Z,101784.09
2024-04-30T16:11:10.346Z,101782.27
2024-04-30T16:13:39.484Z,101783.25
2024-04-30T16:16:12.627Z,101779.09
2024-04-30T16:18:45.547Z,101776.21
2024-04-30T16:21:13.030Z,101776.11
2024-04-30T16:23:40.033Z,101772.45
2024-04-30T16:26:07.472Z,101773.97
2024-04-30T16:28:35.354Z,101772.80
2024-04-30T16:31:03.974Z,101774.32
2024-04-30T16:33:31.919Z,101768.01
2024-04-30T16:35:59.576Z,101771.14
2024-04-30T16:38:28.612Z,101768.45
2024-04-30T16:41:22.763Z,101767.90
2024-04-30T16:43:49.767Z,101759.35
2024-04-30T16:46:16.990Z,101756.64
2024-04-30T16:48:44.438Z,101756.80
2024-04-30T16:51:13.226Z,101753.02
2024-04-30T16:53:40.491Z,101753.53
2024-04-30T16:56:08.372Z,101750.30
2024-04-30T16:58:37.347Z,101745.17
2024-04-30T17:01:07.016Z,101744.29
2024-04-30T17:03:34.946Z,101746.23
2024-04-30T17:06:11.919Z,101746.61
2024-04-30T17:08:40.740Z,101749.12
2024-04-30T17:11:11.115Z,101749.16
2024-04-30T17:13:42.379Z,101749.66
2024-04-30T17:16:17.027Z,101747.91
2024-04-30T17:18:44.135Z,101750.71
2024-04-30T17:21:15.004Z,101748.77
2024-04-30T17:23:42.609Z,101750.00
2024-04-30T17:26:09.681Z,101746.79
2024-04-30T17:28:36.778Z,101745.20
2024-04-30T17:31:04.137Z,101745.18
2024-04-30T17:33:31.390Z,101742.13
2024-04-30T17:35:58.594Z,101746.58
2024-04-30T17:38:25.764Z,101744.44
2024-04-30T17:40:52.714Z,101749.39
2024-04-30T17:43:19.884Z,101746.51
2024-04-30T17:45:46.869Z,101747.70
2024-04-30T17:48:14.036Z,101747.80
2024-04-30T17:50:40.972Z,101750.08
2024-04-30T17:53:08.268Z,101754.94
2024-04-30T17:55:36.186Z,101753.27
2024-04-30T17:58:03.251Z,101756.05
2024-04-30T18:00:30.405Z,101754.88
2024-04-30T18:02:57.546Z,101757.79
2024-04-30T18:05:24.519Z,101759.46
2024-04-30T18:07:51.462Z,101761.99
2024-04-30T18:10:22.933Z,101764.61
2024-04-30T18:12:55.664Z,101769.27
2024-04-30T18:15:22.618Z,101767.39
2024-04-30T18:17:49.931Z,101766.59
2024-04-30T18:20:16.846Z,101763.64
2024-04-30T18:22:43.801Z,101763.19
2024-04-30T18:25:14.804Z,101763.98
2024-04-30T18:27:42.230Z,101762.63
2024-04-30T18:30:09.745Z,101761.65
2024-04-30T18:32:36.801Z,101765.79
2024-04-30T18:35:04.080Z,101763.92
2024-04-30T18:37:31.694Z,101766.80
2024-04-30T18:39:58.945Z,101771.23
2024-04-30T18:42:27.346Z,101772.70
2024-04-30T18:44:54.614Z,101771.20
2024-04-30T18:47:21.719Z,101778.36
2024-04-30T18:49:48.714Z,101772.27
2024-04-30T18:52:15.991Z,101770.95
2024-04-30T18:54:43.235Z,101769.98
2024-04-30T18:57:10.582Z,101768.46
2024-04-30T18:59:37.627Z,101767.27
2024-04-30T19:02:05.077Z,101766.27
2024-04-30T19:04:32.520Z,101762.78
2024-04-30T19:06:59.915Z,101762.88
2024-04-30T19:09:27.181Z,101761.00
2024-04-30T19:11:54.300Z,101764.27
2024-04-30T19:14:21.560Z,101767.71
2024-04-30T19:16:48.468Z,101767.23
2024-04-30T19:19:18.883Z,101763.76
2024-04-30T19:21:48.193Z,101765.41
2024-04-30T19:24:21.443Z,101762.11
2024-04-30T19:26:48.368Z,101760.59
2024-04-30T19:29:15.539Z,101758.54
2024-04-30T19:31:42.493Z,101759.48
2024-04-30T19:34:11.144Z,101759.52
2024-04-30T19:36:38.423Z,101758.88
2024-04-30T19:39:05.557Z,101757.88
2024-04-30T19:41:35.094Z,101758.09
2024-04-30T19:44:02.272Z,101753.33
2024-04-30T19:46:29.514Z,101751.98
2024-04-30T19:48:56.907Z,101750.46
2024-04-30T19:51:24.497Z,101753.14
2024-04-30T19:53:53.273Z,101755.49
2024-04-30T19:56:20.934Z,101758.54
2024-04-30T19:58:57.104Z,101755.95
2024-04-30T20:01:28.870Z,101756.70
2024-04-30T20:04:00.467Z,101755.00
2024-04-30T20:06:28.128Z,101751.52
2024-04-30T20:08:55.811Z,101747.48
2024-04-30T20:11:25.314Z,101745.73
2024-04-30T20:13:54.443Z,101738.56
2024-04-30T20:16:24.841Z,101738.95
2024-04-30T20:18:52.128Z,101737.38
2024-04-30T20:21:19.597Z,101734.93
2024-04-30T20:23:46.821Z,101729.66
2024-04-30T20:26:14.266Z,101730.02
2024-04-30T20:28:41.603Z,101733.73
2024-04-30T20:31:08.704Z,101734.08
2024-04-30T20:33:35.727Z,101733.55
2024-04-30T20:36:03.290Z,101731.25
2024-04-30T20:38:32.487Z,101733.01
2024-04-30T20:40:59.605Z,101731.25
2024-04-30T20:43:27.983Z,101726.14
2024-04-30T20:45:55.049Z,101724.39
2024-04-30T20:48:22.496Z,101720.34
2024-04-30T20:50:49.754Z,101719.31
2024-04-30T20:53:16.900Z,101721.48
2024-04-30T20:55:45.654Z,101722.06
2024-04-30T20:58:13.068Z,101718.54
2024-04-30T21:00:39.933Z,101720.52
2024-04-30T21:03:06.872Z,101718.06
2024-04-30T21:05:34.316Z,101715.77
2024-04-30T21:08:01.660Z,101714.70
2024-04-30T21:10:29.043Z,101718.42
2024-04-30T21:12:59.539Z,101720.89
2024-04-30T21:15:28.110Z,101721.09
2024-04-30T21:17:55.227Z,101714.40
2024-04-30T21:20:22.382Z,101715.98
2024-04-30T21:22:49.384Z,101719.70
2024-04-30T21:25:16.395Z,101719.38
2024-04-30T21:27:43.569Z,101720.48
2024-04-30T21:30:11.425Z,101720.68
2024-04-30T21:32:38.699Z,101716.16
2024-04-30T21:35:13.043Z,101714.63
2024-04-30T21:37:40.908Z,101712.36
2024-04-30T21:40:09.383Z,101711.01
2024-04-30T21:42:36.741Z,101709.48
2024-04-30T21:45:03.940Z,101706.17
2024-04-30T21:47:31.270Z,101708.01
2024-04-30T21:49:58.470Z,101702.94
2024-04-30T21:52:25.651Z,101705.96
2024-04-30T21:54:52.968Z,101704.05
2024-04-30T21:57:20.157Z,101708.11
2024-04-30T21:59:47.228Z,101704.44
2024-04-30T22:02:14.247Z,101701.83
2024-04-30T22:04:43.291Z,101704.50
2024-04-30T22:07:10.408Z,101698.20
2024-04-30T22:09:37.628Z,101700.67
2024-04-30T22:12:05.224Z,101697.88
2024-04-30T22:14:32.358Z,101697.54
2024-04-30T22:16:59.425Z,101699.14
2024-04-30T22:19:29.233Z,101696.36
2024-04-30T22:21:56.210Z,101696.20
2024-04-30T22:24:23.412Z,101688.67
2024-04-30T22:26:50.433Z,101688.89
2024-04-30T22:29:19.523Z,101682.59
2024-04-30T22:31:46.801Z,101684.73
2024-04-30T22:34:14.021Z,101682.64
2024-04-30T22:36:41.444Z,101681.64
2024-04-30T22:39:08.348Z,101680.81
2024-04-30T22:41:35.196Z,101678.70
2024-04-30T22:44:02.443Z,101678.91
2024-04-30T22:46:29.840Z,101677.39
2024-04-30T22:48:57.017Z,101679.73
2024-04-30T22:51:28.549Z,101675.19
2024-04-30T22:53:55.503Z,101679.84
2024-04-30T22:56:22.760Z,101681.64
2024-04-30T22:58:49.921Z,101682.77
2024-04-30T23:01:17.165Z,101676.85
2024-04-30T23:03:44.542Z,101674.13
2024-04-30T23:06:11.867Z,101672.40
2024-04-30T23:08:39.690Z,101668.77
2024-04-30T23:11:06.878Z,101665.65
2024-04-30T23:13:33.978Z,101665.84
2024-04-30T23:16:02.827Z,101666.45
2024-04-30T23:18:30.421Z,101665.42
2024-04-30T23:20:58.021Z,101663.89
2024-04-30T23:23:25.164Z,101663.95
2024-04-30T23:25:52.529Z,101664.01
2024-04-30T23:28:19.454Z,101659.64
2024-04-30T23:30:46.563Z,101663.73
2024-04-30T23:33:13.808Z,101659.65
2024-04-30T23:35:40.951Z,101657.20
2024-04-30T23:38:08.109Z,101657.60
2024-04-30T23:40:35.161Z,101659.05
2024-04-30T23:43:02.256Z,101659.62
2024-04-30T23:45:29.511Z,101657.56
2024-04-30T23:47:56.562Z,101651.59
2024-04-30T23:50:23.547Z,101653.39
2024-04-30T23:52:50.566Z,101651.67
2024-04-30T23:55:17.593Z,101647.48
2024-04-30T23:57:44.587Z,101642.41
